sensor_id;sensor_type;location;lat;lon;timestamp;temperature;humidity
21282;DHT22;10800;53.096;18.328;2022-12-26T00:00:29;5.30;99.90
21282;DHT22;10800;53.096;18.328;2022-12-26T00:06:20;5.40;99.90
21282;DHT22;10800;53.096;18.328;2022-12-26T00:11:32;5.40;99.90
21282;DHT22;10800;53.096;18.328;2022-12-26T00:16:57;5.40;99.90
21282;DHT22;10800;53.096;18.328;2022-12-26T00:22:05;5.40;99.90
21282;DHT22;10800;53.096;18.328;2022-12-26T00:27:14;5.40;99.90
21282;DHT22;10800;53.096;18.328;2022-12-26T00:32:24;5.40;99.90
21282;DHT22;10800;53.096;18.328;2022-12-26T00:37:34;5.40;99.90
21282;DHT22;10800;53.096;18.328;2022-12-26T00:42:44;5.30;99.90
21282;DHT22;10800;53.096;18.328;2022-12-26T00:48:03;5.30;99.90
21282;DHT22;10800;53.096;18.328;2022-12-26T00:53:24;5.40;99.90
21282;DHT22;10800;53.096;18.328;2022-12-26T00:58:59;5.30;99.90
21282;DHT22;10800;53.096;18.328;2022-12-26T01:04:24;5.40;99.90
21282;DHT22;10800;53.096;18.328;2022-12-26T01:09:39;5.40;99.90
21282;DHT22;10800;53.096;18.328;2022-12-26T01:14:58;5.40;99.90
21282;DHT22;10800;53.096;18.328;2022-12-26T01:20:23;5.40;99.90
21282;DHT22;10800;53.096;18.328;2022-12-26T01:25:33;5.40;99.90
21282;DHT22;10800;53.096;18.328;2022-12-26T01:30:41;5.40;99.90
21282;DHT22;10800;53.096;18.328;2022-12-26T01:35:50;5.50;99.90
21282;DHT22;10800;53.096;18.328;2022-12-26T01:40:56;5.50;99.90
21282;DHT22;10800;53.096;18.328;2022-12-26T01:51:35;5.40;99.90
21282;DHT22;10800;53.096;18.328;2022-12-26T01:56:44;5.40;99.90
21282;DHT22;10800;53.096;18.328;2022-12-26T02:01:52;5.40;99.90
21282;DHT22;10800;53.096;18.328;2022-12-26T02:07:00;5.40;99.90
21282;DHT22;10800;53.096;18.328;2022-12-26T02:12:18;5.40;99.90
21282;DHT22;10800;53.096;18.328;2022-12-26T02:17:41;5.50;99.90
21282;DHT22;10800;53.096;18.328;2022-12-26T02:34:14;5.70;99.90
21282;DHT22;10800;53.096;18.328;2022-12-26T02:40:33;5.80;99.90
21282;DHT22;10800;53.096;18.328;2022-12-26T03:04:15;5.80;99.90
21282;DHT22;10800;53.096;18.328;2022-12-26T03:16:15;5.90;99.90
21282;DHT22;10800;53.096;18.328;2022-12-26T03:22:11;5.80;99.90
21282;DHT22;10800;53.096;18.328;2022-12-26T03:33:50;6.00;99.90
21282;DHT22;10800;53.096;18.328;2022-12-26T03:52:28;6.00;99.90
21282;DHT22;10800;53.096;18.328;2022-12-26T03:57:58;6.00;99.90
21282;DHT22;10800;53.096;18.328;2022-12-26T04:03:25;6.10;99.90
21282;DHT22;10800;53.096;18.328;2022-12-26T04:09:07;6.10;99.90
21282;DHT22;10800;53.096;18.328;2022-12-26T04:15:20;6.20;99.90
21282;DHT22;10800;53.096;18.328;2022-12-26T04:26:45;6.20;99.90
21282;DHT22;10800;53.096;18.328;2022-12-26T04:32:45;6.20;99.90
21282;DHT22;10800;53.096;18.328;2022-12-26T04:38:47;6.20;99.90
21282;DHT22;10800;53.096;18.328;2022-12-26T04:44:41;6.20;99.90
21282;DHT22;10800;53.096;18.328;2022-12-26T04:50:28;6.30;99.90
21282;DHT22;10800;53.096;18.328;2022-12-26T04:56:14;6.30;99.90
21282;DHT22;10800;53.096;18.328;2022-12-26T05:01:48;6.30;99.90
21282;DHT22;10800;53.096;18.328;2022-12-26T05:14:18;6.40;99.90
21282;DHT22;10800;53.096;18.328;2022-12-26T05:37:12;6.50;99.90
21282;DHT22;10800;53.096;18.328;2022-12-26T05:42:40;6.50;99.90
21282;DHT22;10800;53.096;18.328;2022-12-26T05:48:15;6.50;99.90
21282;DHT22;10800;53.096;18.328;2022-12-26T05:53:47;6.50;99.90
21282;DHT22;10800;53.096;18.328;2022-12-26T05:59:17;6.50;99.90
21282;DHT22;10800;53.096;18.328;2022-12-26T06:04:44;6.60;99.90
21282;DHT22;10800;53.096;18.328;2022-12-26T06:10:12;6.50;99.90
21282;DHT22;10800;53.096;18.328;2022-12-26T06:15:23;6.50;99.90
21282;DHT22;10800;53.096;18.328;2022-12-26T06:20:53;6.50;99.90
21282;DHT22;10800;53.096;18.328;2022-12-26T06:26:31;6.60;99.90
21282;DHT22;10800;53.096;18.328;2022-12-26T06:32:29;6.60;99.90
21282;DHT22;10800;53.096;18.328;2022-12-26T06:43:39;6.70;99.90
21282;DHT22;10800;53.096;18.328;2022-12-26T06:48:54;6.70;99.90
21282;DHT22;10800;53.096;18.328;2022-12-26T06:54:31;6.70;99.90
21282;DHT22;10800;53.096;18.328;2022-12-26T07:00:17;6.80;99.90
21282;DHT22;10800;53.096;18.328;2022-12-26T08:02:59;7.10;99.90
21282;DHT22;10800;53.096;18.328;2022-12-26T08:08:28;7.20;99.90
21282;DHT22;10800;53.096;18.328;2022-12-26T08:13:56;7.20;99.90
21282;DHT22;10800;53.096;18.328;2022-12-26T08:19:29;7.20;99.90
21282;DHT22;10800;53.096;18.328;2022-12-26T08:24:59;7.20;99.90
21282;DHT22;10800;53.096;18.328;2022-12-26T08:36:12;7.40;99.90
21282;DHT22;10800;53.096;18.328;2022-12-26T08:42:04;7.50;99.90
21282;DHT22;10800;53.096;18.328;2022-12-26T08:53:15;8.00;99.90
21282;DHT22;10800;53.096;18.328;2022-12-26T08:59:15;8.00;99.90
21282;DHT22;10800;53.096;18.328;2022-12-26T11:26:46;10.70;99.90
21282;DHT22;10800;53.096;18.328;2022-12-26T11:32:16;10.70;99.90
21282;DHT22;10800;53.096;18.328;2022-12-26T11:43:17;10.50;99.90
21282;DHT22;10800;53.096;18.328;2022-12-26T12:53:58;9.90;99.90
21282;DHT22;10800;53.096;18.328;2022-12-26T13:33:14;9.70;99.90
21282;DHT22;10800;53.096;18.328;2022-12-26T14:43:36;9.30;99.90
21282;DHT22;10800;53.096;18.328;2022-12-26T14:55:44;9.40;99.90
21282;DHT22;10800;53.096;18.328;2022-12-26T16:09:41;9.00;99.90
21282;DHT22;10800;53.096;18.328;2022-12-26T16:20:25;8.90;99.90
21282;DHT22;10800;53.096;18.328;2022-12-26T16:31:44;9.00;99.90
21282;DHT22;10800;53.096;18.328;2022-12-26T16:54:41;9.00;99.90
21282;DHT22;10800;53.096;18.328;2022-12-26T17:06:07;9.00;99.90
21282;DHT22;10800;53.096;18.328;2022-12-26T17:11:39;9.10;99.90
21282;DHT22;10800;53.096;18.328;2022-12-26T17:17:38;9.00;99.90
21282;DHT22;10800;53.096;18.328;2022-12-26T17:41:16;9.00;99.90
21282;DHT22;10800;53.096;18.328;2022-12-26T17:46:45;9.00;99.90
21282;DHT22;10800;53.096;18.328;2022-12-26T18:31:45;8.90;99.90
21282;DHT22;10800;53.096;18.328;2022-12-26T18:37:24;8.80;99.90
21282;DHT22;10800;53.096;18.328;2022-12-26T19:00:05;8.80;99.90
21282;DHT22;10800;53.096;18.328;2022-12-26T19:28:20;8.60;99.90
21282;DHT22;10800;53.096;18.328;2022-12-26T19:33:42;8.60;99.90
21282;DHT22;10800;53.096;18.328;2022-12-26T19:39:36;8.60;99.90
21282;DHT22;10800;53.096;18.328;2022-12-26T19:45:12;8.60;99.90
21282;DHT22;10800;53.096;18.328;2022-12-26T19:50:58;8.60;99.90
21282;DHT22;10800;53.096;18.328;2022-12-26T20:08:58;8.70;99.90
21282;DHT22;10800;53.096;18.328;2022-12-26T20:44:43;8.90;99.90
21282;DHT22;10800;53.096;18.328;2022-12-26T21:02:30;8.70;99.90
21282;DHT22;10800;53.096;18.328;2022-12-26T21:07:51;8.70;99.90
21282;DHT22;10800;53.096;18.328;2022-12-26T21:13:02;8.70;99.90
21282;DHT22;10800;53.096;18.328;2022-12-26T21:18:25;8.70;99.90
21282;DHT22;10800;53.096;18.328;2022-12-26T21:23:42;8.60;99.90
21282;DHT22;10800;53.096;18.328;2022-12-26T21:35:00;8.40;99.90
21282;DHT22;10800;53.096;18.328;2022-12-26T21:52:39;8.30;99.90
21282;DHT22;10800;53.096;18.328;2022-12-26T21:58:40;8.10;99.90
21282;DHT22;10800;53.096;18.328;2022-12-26T22:04:33;8.00;99.90
21282;DHT22;10800;53.096;18.328;2022-12-26T22:10:31;8.10;99.90
21282;DHT22;10800;53.096;18.328;2022-12-26T22:16:24;8.10;99.90
21282;DHT22;10800;53.096;18.328;2022-12-26T22:22:42;8.00;99.90
21282;DHT22;10800;53.096;18.328;2022-12-26T22:28:26;8.10;99.90
21282;DHT22;10800;53.096;18.328;2022-12-26T22:34:02;8.10;99.90
21282;DHT22;10800;53.096;18.328;2022-12-26T22:39:30;8.00;99.90
21282;DHT22;10800;53.096;18.328;2022-12-26T22:44:48;8.00;99.90
21282;DHT22;10800;53.096;18.328;2022-12-26T22:50:48;8.00;99.90
21282;DHT22;10800;53.096;18.328;2022-12-26T23:02:26;8.10;99.90
21282;DHT22;10800;53.096;18.328;2022-12-26T23:08:20;8.10;99.90
21282;DHT22;10800;53.096;18.328;2022-12-26T23:14:10;8.10;99.90
21282;DHT22;10800;53.096;18.328;2022-12-26T23:19:48;8.00;99.90
21282;DHT22;10800;53.096;18.328;2022-12-26T23:25:32;7.90;99.90
21282;DHT22;10800;53.096;18.328;2022-12-26T23:31:28;7.70;99.90
21282;DHT22;10800;53.096;18.328;2022-12-26T23:42:46;7.20;99.90
21282;DHT22;10800;53.096;18.328;2022-12-26T23:48:00;6.90;99.90
21282;DHT22;10800;53.096;18.328;2022-12-26T23:53:08;6.60;99.90
21282;DHT22;10800;53.096;18.328;2022-12-26T23:58:18;6.30;99.90
